sensor_id;sensor_type;location;lat;lon;timestamp;temperature;humidity
9448;DHT22;4762;48.128;11.376;2022-11-15T00:01:07;3.00;94.50
9448;DHT22;4762;48.128;11.376;2022-11-15T00:03:09;3.00;95.50
9448;DHT22;4762;48.128;11.376;2022-11-15T00:05:11;2.90;95.50
9448;DHT22;4762;48.128;11.376;2022-11-15T00:07:13;2.80;95.30
9448;DHT22;4762;48.128;11.376;2022-11-15T00:09:16;2.70;96.50
9448;DHT22;4762;48.128;11.376;2022-11-15T00:11:18;2.60;96.60
9448;DHT22;4762;48.128;11.376;2022-11-15T00:13:22;2.60;96.70
9448;DHT22;4762;48.128;11.376;2022-11-15T00:15:24;2.50;96.20
9448;DHT22;4762;48.128;11.376;2022-11-15T00:17:26;2.70;96.00
9448;DHT22;4762;48.128;11.376;2022-11-15T00:19:30;2.60;95.40
9448;DHT22;4762;48.128;11.376;2022-11-15T00:21:32;2.70;94.80
9448;DHT22;4762;48.128;11.376;2022-11-15T00:23:35;2.70;95.60
9448;DHT22;4762;48.128;11.376;2022-11-15T00:25:37;2.60;95.70
9448;DHT22;4762;48.128;11.376;2022-11-15T00:30:05;2.50;96.20
9448;DHT22;4762;48.128;11.376;2022-11-15T00:32:09;2.50;95.90
9448;DHT22;4762;48.128;11.376;2022-11-15T00:34:10;2.40;96.60
9448;DHT22;4762;48.128;11.376;2022-11-15T00:36:12;2.30;96.60
9448;DHT22;4762;48.128;11.376;2022-11-15T00:38:15;2.20;96.20
9448;DHT22;4762;48.128;11.376;2022-11-15T00:40:17;2.10;96.00
9448;DHT22;4762;48.128;11.376;2022-11-15T00:42:20;2.10;95.90
9448;DHT22;4762;48.128;11.376;2022-11-15T00:44:22;2.20;96.20
9448;DHT22;4762;48.128;11.376;2022-11-15T00:46:25;2.10;96.50
9448;DHT22;4762;48.128;11.376;2022-11-15T00:48:28;2.10;96.20
9448;DHT22;4762;48.128;11.376;2022-11-15T00:50:30;2.30;95.70
9448;DHT22;4762;48.128;11.376;2022-11-15T00:52:32;2.20;95.40
9448;DHT22;4762;48.128;11.376;2022-11-15T00:54:34;2.00;95.60
9448;DHT22;4762;48.128;11.376;2022-11-15T00:56:38;2.10;95.20
9448;DHT22;4762;48.128;11.376;2022-11-15T00:58:40;2.00;95.00
9448;DHT22;4762;48.128;11.376;2022-11-15T01:00:42;2.10;95.80
9448;DHT22;4762;48.128;11.376;2022-11-15T01:02:44;2.10;95.60
9448;DHT22;4762;48.128;11.376;2022-11-15T01:04:48;1.90;95.50
9448;DHT22;4762;48.128;11.376;2022-11-15T01:06:50;2.00;95.70
9448;DHT22;4762;48.128;11.376;2022-11-15T01:08:52;2.20;95.60
9448;DHT22;4762;48.128;11.376;2022-11-15T01:10:59;2.00;96.50
9448;DHT22;4762;48.128;11.376;2022-11-15T01:12:57;2.20;96.00
9448;DHT22;4762;48.128;11.376;2022-11-15T01:14:59;1.90;96.10
9448;DHT22;4762;48.128;11.376;2022-11-15T01:17:02;1.90;96.40
9448;DHT22;4762;48.128;11.376;2022-11-15T01:19:05;1.90;96.00
9448;DHT22;4762;48.128;11.376;2022-11-15T01:21:11;1.90;96.10
9448;DHT22;4762;48.128;11.376;2022-11-15T01:23:12;2.10;96.20
9448;DHT22;4762;48.128;11.376;2022-11-15T01:25:14;2.10;96.70
9448;DHT22;4762;48.128;11.376;2022-11-15T01:27:17;2.30;96.80
9448;DHT22;4762;48.128;11.376;2022-11-15T01:29:19;2.40;96.80
9448;DHT22;4762;48.128;11.376;2022-11-15T01:31:21;2.40;96.40
9448;DHT22;4762;48.128;11.376;2022-11-15T01:33:24;2.50;96.10
9448;DHT22;4762;48.128;11.376;2022-11-15T01:35:26;2.30;96.00
9448;DHT22;4762;48.128;11.376;2022-11-15T01:37:29;2.50;95.80
9448;DHT22;4762;48.128;11.376;2022-11-15T01:39:31;2.40;97.10
9448;DHT22;4762;48.128;11.376;2022-11-15T01:41:33;2.40;96.60
9448;DHT22;4762;48.128;11.376;2022-11-15T01:43:36;2.30;96.50
9448;DHT22;4762;48.128;11.376;2022-11-15T01:45:38;2.50;96.40
9448;DHT22;4762;48.128;11.376;2022-11-15T01:47:41;2.30;95.80
9448;DHT22;4762;48.128;11.376;2022-11-15T01:49:47;2.10;95.30
9448;DHT22;4762;48.128;11.376;2022-11-15T01:51:47;2.20;94.90
9448;DHT22;4762;48.128;11.376;2022-11-15T01:53:51;2.00;94.90
9448;DHT22;4762;48.128;11.376;2022-11-15T01:55:52;2.10;95.60
9448;DHT22;4762;48.128;11.376;2022-11-15T01:57:56;1.90;95.30
9448;DHT22;4762;48.128;11.376;2022-11-15T01:59:57;1.90;94.90
9448;DHT22;4762;48.128;11.376;2022-11-15T02:01:59;2.00;94.80
9448;DHT22;4762;48.128;11.376;2022-11-15T02:04:06;1.80;94.40
9448;DHT22;4762;48.128;11.376;2022-11-15T02:06:06;1.80;94.20
9448;DHT22;4762;48.128;11.376;2022-11-15T02:08:09;1.70;93.90
9448;DHT22;4762;48.128;11.376;2022-11-15T02:10:14;1.70;93.90
9448;DHT22;4762;48.128;11.376;2022-11-15T02:12:16;1.70;95.60
9448;DHT22;4762;48.128;11.376;2022-11-15T02:14:18;1.60;95.70
9448;DHT22;4762;48.128;11.376;2022-11-15T02:16:35;1.50;95.90
9448;DHT22;4762;48.128;11.376;2022-11-15T02:18:37;1.50;95.00
9448;DHT22;4762;48.128;11.376;2022-11-15T02:20:47;1.70;95.90
9448;DHT22;4762;48.128;11.376;2022-11-15T02:23:12;1.60;96.20
9448;DHT22;4762;48.128;11.376;2022-11-15T02:27:40;1.50;95.20
9448;DHT22;4762;48.128;11.376;2022-11-15T02:29:48;1.40;94.70
9448;DHT22;4762;48.128;11.376;2022-11-15T02:32:04;1.40;94.30
9448;DHT22;4762;48.128;11.376;2022-11-15T02:36:40;1.50;94.90
9448;DHT22;4762;48.128;11.376;2022-11-15T02:38:43;1.30;96.40
9448;DHT22;4762;48.128;11.376;2022-11-15T02:40:57;1.30;96.20
9448;DHT22;4762;48.128;11.376;2022-11-15T02:43:04;1.30;96.00
9448;DHT22;4762;48.128;11.376;2022-11-15T02:45:11;1.40;96.40
9448;DHT22;4762;48.128;11.376;2022-11-15T02:47:13;1.30;95.90
9448;DHT22;4762;48.128;11.376;2022-11-15T02:49:14;1.20;95.40
9448;DHT22;4762;48.128;11.376;2022-11-15T02:51:17;1.20;95.10
9448;DHT22;4762;48.128;11.376;2022-11-15T02:53:23;1.30;94.70
9448;DHT22;4762;48.128;11.376;2022-11-15T02:55:28;1.20;95.40
9448;DHT22;4762;48.128;11.376;2022-11-15T02:57:51;1.00;95.90
9448;DHT22;4762;48.128;11.376;2022-11-15T03:00:08;1.50;95.60
9448;DHT22;4762;48.128;11.376;2022-11-15T03:02:46;1.30;96.20
9448;DHT22;4762;48.128;11.376;2022-11-15T03:04:52;1.30;95.80
9448;DHT22;4762;48.128;11.376;2022-11-15T03:11:35;1.30;96.70
9448;DHT22;4762;48.128;11.376;2022-11-15T03:13:39;1.00;97.20
9448;DHT22;4762;48.128;11.376;2022-11-15T03:15:41;1.00;96.90
9448;DHT22;4762;48.128;11.376;2022-11-15T03:17:42;1.00;96.70
9448;DHT22;4762;48.128;11.376;2022-11-15T03:19:45;1.20;96.90
9448;DHT22;4762;48.128;11.376;2022-11-15T03:21:46;1.10;96.90
9448;DHT22;4762;48.128;11.376;2022-11-15T03:23:49;1.00;96.90
9448;DHT22;4762;48.128;11.376;2022-11-15T03:25:51;0.90;97.10
9448;DHT22;4762;48.128;11.376;2022-11-15T03:27:55;0.90;96.80
9448;DHT22;4762;48.128;11.376;2022-11-15T03:29:58;1.10;96.40
9448;DHT22;4762;48.128;11.376;2022-11-15T03:32:02;1.00;96.40
9448;DHT22;4762;48.128;11.376;2022-11-15T03:34:04;0.80;96.20
9448;DHT22;4762;48.128;11.376;2022-11-15T03:36:06;0.90;96.40
9448;DHT22;4762;48.128;11.376;2022-11-15T03:38:14;0.80;96.60
9448;DHT22;4762;48.128;11.376;2022-11-15T03:40:14;0.70;96.70
9448;DHT22;4762;48.128;11.376;2022-11-15T03:42:28;0.70;96.70
9448;DHT22;4762;48.128;11.376;2022-11-15T03:46:47;0.80;96.60
9448;DHT22;4762;48.128;11.376;2022-11-15T03:48:52;0.60;96.40
9448;DHT22;4762;48.128;11.376;2022-11-15T03:50:53;0.90;96.30
9448;DHT22;4762;48.128;11.376;2022-11-15T03:52:55;0.70;96.40
9448;DHT22;4762;48.128;11.376;2022-11-15T03:54:58;0.90;96.00
9448;DHT22;4762;48.128;11.376;2022-11-15T03:57:00;0.80;95.80
9448;DHT22;4762;48.128;11.376;2022-11-15T03:59:02;0.70;95.90
9448;DHT22;4762;48.128;11.376;2022-11-15T04:01:05;0.70;96.10
9448;DHT22;4762;48.128;11.376;2022-11-15T04:03:07;0.50;95.90
9448;DHT22;4762;48.128;11.376;2022-11-15T04:05:09;0.70;96.30
9448;DHT22;4762;48.128;11.376;2022-11-15T04:07:12;0.60;96.50
9448;DHT22;4762;48.128;11.376;2022-11-15T04:09:15;0.60;96.40
9448;DHT22;4762;48.128;11.376;2022-11-15T04:11:17;0.50;96.10
9448;DHT22;4762;48.128;11.376;2022-11-15T04:13:20;0.50;96.30
9448;DHT22;4762;48.128;11.376;2022-11-15T04:15:23;0.50;95.80
9448;DHT22;4762;48.128;11.376;2022-11-15T04:19:42;0.50;95.60
9448;DHT22;4762;48.128;11.376;2022-11-15T04:21:50;0.50;96.20
9448;DHT22;4762;48.128;11.376;2022-11-15T04:23:58;0.60;96.30
9448;DHT22;4762;48.128;11.376;2022-11-15T04:26:15;0.40;96.70
9448;DHT22;4762;48.128;11.376;2022-11-15T04:28:17;0.60;97.20
9448;DHT22;4762;48.128;11.376;2022-11-15T04:30:19;0.50;97.20
9448;DHT22;4762;48.128;11.376;2022-11-15T04:32:22;0.40;97.70
9448;DHT22;4762;48.128;11.376;2022-11-15T04:34:24;0.50;97.30
9448;DHT22;4762;48.128;11.376;2022-11-15T04:36:26;0.60;97.60
9448;DHT22;4762;48.128;11.376;2022-11-15T04:38:35;0.60;97.40
9448;DHT22;4762;48.128;11.376;2022-11-15T04:40:37;0.70;97.20
9448;DHT22;4762;48.128;11.376;2022-11-15T04:42:41;0.60;96.90
9448;DHT22;4762;48.128;11.376;2022-11-15T04:44:44;0.50;96.50
9448;DHT22;4762;48.128;11.376;2022-11-15T04:46:46;0.40;96.30
9448;DHT22;4762;48.128;11.376;2022-11-15T04:48:49;0.50;96.20
9448;DHT22;4762;48.128;11.376;2022-11-15T04:50:51;0.30;96.60
9448;DHT22;4762;48.128;11.376;2022-11-15T04:52:53;0.50;96.80
9448;DHT22;4762;48.128;11.376;2022-11-15T04:54:56;0.40;96.60
9448;DHT22;4762;48.128;11.376;2022-11-15T04:56:59;0.40;96.80
9448;DHT22;4762;48.128;11.376;2022-11-15T04:59:01;0.50;96.70
9448;DHT22;4762;48.128;11.376;2022-11-15T05:01:09;0.20;97.10
9448;DHT22;4762;48.128;11.376;2022-11-15T05:03:11;0.40;97.10
9448;DHT22;4762;48.128;11.376;2022-11-15T05:05:19;0.30;97.30
9448;DHT22;4762;48.128;11.376;2022-11-15T05:07:21;0.20;97.00
9448;DHT22;4762;48.128;11.376;2022-11-15T05:09:24;0.20;96.60
9448;DHT22;4762;48.128;11.376;2022-11-15T05:11:27;0.20;97.00
9448;DHT22;4762;48.128;11.376;2022-11-15T05:13:29;0.40;96.70
9448;DHT22;4762;48.128;11.376;2022-11-15T05:15:32;0.20;97.10
9448;DHT22;4762;48.128;11.376;2022-11-15T05:17:34;0.50;97.10
9448;DHT22;4762;48.128;11.376;2022-11-15T05:19:36;0.40;96.70
9448;DHT22;4762;48.128;11.376;2022-11-15T05:21:39;0.50;96.60
9448;DHT22;4762;48.128;11.376;2022-11-15T05:23:41;0.20;96.70
9448;DHT22;4762;48.128;11.376;2022-11-15T05:25:43;0.40;97.00
9448;DHT22;4762;48.128;11.376;2022-11-15T05:27:47;0.20;96.80
9448;DHT22;4762;48.128;11.376;2022-11-15T05:29:49;0.20;96.60
9448;DHT22;4762;48.128;11.376;2022-11-15T05:31:52;0.50;96.50
9448;DHT22;4762;48.128;11.376;2022-11-15T05:33:55;0.20;96.50
9448;DHT22;4762;48.128;11.376;2022-11-15T05:36:00;0.30;96.20
9448;DHT22;4762;48.128;11.376;2022-11-15T05:38:00;0.10;96.30
9448;DHT22;4762;48.128;11.376;2022-11-15T05:40:03;0.10;96.10
9448;DHT22;4762;48.128;11.376;2022-11-15T05:42:09;0.10;96.80
9448;DHT22;4762;48.128;11.376;2022-11-15T05:44:11;0.20;97.60
9448;DHT22;4762;48.128;11.376;2022-11-15T05:46:14;0.10;97.30
9448;DHT22;4762;48.128;11.376;2022-11-15T05:48:16;0.10;97.60
9448;DHT22;4762;48.128;11.376;2022-11-15T05:50:19;0.20;97.30
9448;DHT22;4762;48.128;11.376;2022-11-15T05:52:22;0.20;97.00
9448;DHT22;4762;48.128;11.376;2022-11-15T05:54:23;0.10;96.70
9448;DHT22;4762;48.128;11.376;2022-11-15T05:56:26;0.30;96.30
9448;DHT22;4762;48.128;11.376;2022-11-15T05:58:28;0.40;96.20
9448;DHT22;4762;48.128;11.376;2022-11-15T06:00:31;0.20;96.40
9448;DHT22;4762;48.128;11.376;2022-11-15T06:02:33;0.00;96.60
9448;DHT22;4762;48.128;11.376;2022-11-15T06:04:36;0.30;96.30
9448;DHT22;4762;48.128;11.376;2022-11-15T06:06:38;0.10;96.10
9448;DHT22;4762;48.128;11.376;2022-11-15T06:08:40;0.10;96.20
9448;DHT22;4762;48.128;11.376;2022-11-15T06:10:43;0.20;96.10
9448;DHT22;4762;48.128;11.376;2022-11-15T06:12:45;0.20;96.10
9448;DHT22;4762;48.128;11.376;2022-11-15T06:14:47;0.10;95.90
9448;DHT22;4762;48.128;11.376;2022-11-15T06:16:49;0.00;95.80
9448;DHT22;4762;48.128;11.376;2022-11-15T06:18:52;0.20;96.20
9448;DHT22;4762;48.128;11.376;2022-11-15T06:20:57;0.10;96.40
9448;DHT22;4762;48.128;11.376;2022-11-15T06:23:00;0.10;96.20
9448;DHT22;4762;48.128;11.376;2022-11-15T06:25:01;0.10;96.10
9448;DHT22;4762;48.128;11.376;2022-11-15T06:27:04;0.00;96.00
9448;DHT22;4762;48.128;11.376;2022-11-15T06:29:06;-3276.70;96.20
9448;DHT22;4762;48.128;11.376;2022-11-15T06:31:09;0.10;96.00
9448;DHT22;4762;48.128;11.376;2022-11-15T06:33:11;0.10;96.10
9448;DHT22;4762;48.128;11.376;2022-11-15T06:35:13;0.20;96.00
9448;DHT22;4762;48.128;11.376;2022-11-15T06:37:17;0.20;96.10
9448;DHT22;4762;48.128;11.376;2022-11-15T06:39:19;-3276.70;97.20
9448;DHT22;4762;48.128;11.376;2022-11-15T06:41:21;-3276.70;97.50
9448;DHT22;4762;48.128;11.376;2022-11-15T06:43:24;0.20;96.80
9448;DHT22;4762;48.128;11.376;2022-11-15T06:45:27;0.20;97.00
9448;DHT22;4762;48.128;11.376;2022-11-15T06:47:30;0.10;96.70
9448;DHT22;4762;48.128;11.376;2022-11-15T06:49:32;0.20;96.40
9448;DHT22;4762;48.128;11.376;2022-11-15T06:51:35;0.50;96.50
9448;DHT22;4762;48.128;11.376;2022-11-15T06:53:37;0.20;96.20
9448;DHT22;4762;48.128;11.376;2022-11-15T06:55:39;0.30;96.00
9448;DHT22;4762;48.128;11.376;2022-11-15T06:57:47;0.20;96.20
9448;DHT22;4762;48.128;11.376;2022-11-15T06:59:49;0.40;96.40
9448;DHT22;4762;48.128;11.376;2022-11-15T07:01:51;0.30;96.90
9448;DHT22;4762;48.128;11.376;2022-11-15T07:03:53;0.30;97.40
9448;DHT22;4762;48.128;11.376;2022-11-15T07:05:56;0.30;96.80
9448;DHT22;4762;48.128;11.376;2022-11-15T07:07:58;0.40;96.90
9448;DHT22;4762;48.128;11.376;2022-11-15T07:10:02;0.40;96.70
9448;DHT22;4762;48.128;11.376;2022-11-15T07:12:04;0.60;96.90
9448;DHT22;4762;48.128;11.376;2022-11-15T07:14:07;0.70;97.10
9448;DHT22;4762;48.128;11.376;2022-11-15T07:16:09;0.50;97.10
9448;DHT22;4762;48.128;11.376;2022-11-15T07:18:11;0.80;97.20
9448;DHT22;4762;48.128;11.376;2022-11-15T07:20:14;0.70;96.90
9448;DHT22;4762;48.128;11.376;2022-11-15T07:22:19;0.70;96.40
9448;DHT22;4762;48.128;11.376;2022-11-15T07:24:21;0.90;96.30
9448;DHT22;4762;48.128;11.376;2022-11-15T07:26:24;0.90;96.30
9448;DHT22;4762;48.128;11.376;2022-11-15T07:28:26;0.90;96.60
9448;DHT22;4762;48.128;11.376;2022-11-15T07:30:28;1.00;96.60
9448;DHT22;4762;48.128;11.376;2022-11-15T07:32:31;1.00;96.80
9448;DHT22;4762;48.128;11.376;2022-11-15T07:34:33;1.10;96.50
9448;DHT22;4762;48.128;11.376;2022-11-15T07:36:37;0.90;96.40
9448;DHT22;4762;48.128;11.376;2022-11-15T07:38:39;1.10;96.60
9448;DHT22;4762;48.128;11.376;2022-11-15T07:40:43;1.10;97.60
9448;DHT22;4762;48.128;11.376;2022-11-15T07:42:45;1.30;97.40
9448;DHT22;4762;48.128;11.376;2022-11-15T07:44:53;1.20;97.40
9448;DHT22;4762;48.128;11.376;2022-11-15T07:46:55;1.40;97.30
9448;DHT22;4762;48.128;11.376;2022-11-15T07:48:58;1.40;97.00
9448;DHT22;4762;48.128;11.376;2022-11-15T07:51:00;1.50;96.90
9448;DHT22;4762;48.128;11.376;2022-11-15T07:53:03;1.40;96.80
9448;DHT22;4762;48.128;11.376;2022-11-15T07:55:07;1.60;97.30
9448;DHT22;4762;48.128;11.376;2022-11-15T07:57:09;1.60;97.50
9448;DHT22;4762;48.128;11.376;2022-11-15T07:59:11;1.70;97.50
9448;DHT22;4762;48.128;11.376;2022-11-15T08:01:14;1.70;97.40
9448;DHT22;4762;48.128;11.376;2022-11-15T08:03:16;1.90;97.00
9448;DHT22;4762;48.128;11.376;2022-11-15T08:05:18;2.00;96.90
9448;DHT22;4762;48.128;11.376;2022-11-15T08:07:21;1.80;97.20
9448;DHT22;4762;48.128;11.376;2022-11-15T08:09:23;2.00;97.20
9448;DHT22;4762;48.128;11.376;2022-11-15T08:11:26;2.40;97.10
9448;DHT22;4762;48.128;11.376;2022-11-15T08:13:29;2.60;96.90
9448;DHT22;4762;48.128;11.376;2022-11-15T08:15:31;2.90;96.30
9448;DHT22;4762;48.128;11.376;2022-11-15T08:17:33;2.80;96.00
9448;DHT22;4762;48.128;11.376;2022-11-15T08:19:36;2.90;96.30
9448;DHT22;4762;48.128;11.376;2022-11-15T08:21:38;2.80;96.10
9448;DHT22;4762;48.128;11.376;2022-11-15T08:23:40;2.90;96.00
9448;DHT22;4762;48.128;11.376;2022-11-15T08:25:43;3.00;95.90
9448;DHT22;4762;48.128;11.376;2022-11-15T08:27:46;3.10;95.90
9448;DHT22;4762;48.128;11.376;2022-11-15T08:29:49;3.40;95.80
9448;DHT22;4762;48.128;11.376;2022-11-15T08:31:54;3.40;95.90
9448;DHT22;4762;48.128;11.376;2022-11-15T08:33:54;3.60;95.90
9448;DHT22;4762;48.128;11.376;2022-11-15T08:35:57;4.00;95.90
9448;DHT22;4762;48.128;11.376;2022-11-15T08:37:59;4.00;95.00
9448;DHT22;4762;48.128;11.376;2022-11-15T08:40:02;4.50;94.20
9448;DHT22;4762;48.128;11.376;2022-11-15T08:42:05;4.30;94.40
9448;DHT22;4762;48.128;11.376;2022-11-15T08:44:08;4.10;94.80
9448;DHT22;4762;48.128;11.376;2022-11-15T08:46:11;4.10;95.40
9448;DHT22;4762;48.128;11.376;2022-11-15T08:48:13;4.20;95.10
9448;DHT22;4762;48.128;11.376;2022-11-15T08:50:16;4.50;94.30
9448;DHT22;4762;48.128;11.376;2022-11-15T08:52:18;4.80;93.40
9448;DHT22;4762;48.128;11.376;2022-11-15T08:54:20;4.60;93.30
9448;DHT22;4762;48.128;11.376;2022-11-15T08:56:23;4.60;94.40
9448;DHT22;4762;48.128;11.376;2022-11-15T08:58:25;4.50;94.30
9448;DHT22;4762;48.128;11.376;2022-11-15T09:00:27;4.60;93.90
9448;DHT22;4762;48.128;11.376;2022-11-15T09:02:29;4.30;93.70
9448;DHT22;4762;48.128;11.376;2022-11-15T09:04:32;4.70;93.70
9448;DHT22;4762;48.128;11.376;2022-11-15T09:06:34;5.00;93.30
9448;DHT22;4762;48.128;11.376;2022-11-15T09:08:36;5.20;92.30
9448;DHT22;4762;48.128;11.376;2022-11-15T09:10:39;5.00;93.20
9448;DHT22;4762;48.128;11.376;2022-11-15T09:12:41;5.20;93.40
9448;DHT22;4762;48.128;11.376;2022-11-15T09:14:44;5.50;92.70
9448;DHT22;4762;48.128;11.376;2022-11-15T09:16:46;6.70;93.80
9448;DHT22;4762;48.128;11.376;2022-11-15T09:18:58;8.10;95.50
9448;DHT22;4762;48.128;11.376;2022-11-15T09:21:19;8.90;91.70
9448;DHT22;4762;48.128;11.376;2022-11-15T09:23:21;9.40;88.70
9448;DHT22;4762;48.128;11.376;2022-11-15T09:25:23;9.70;87.80
9448;DHT22;4762;48.128;11.376;2022-11-15T09:27:28;10.10;87.30
9448;DHT22;4762;48.128;11.376;2022-11-15T09:29:29;10.50;86.70
9448;DHT22;4762;48.128;11.376;2022-11-15T09:31:32;10.70;87.50
9448;DHT22;4762;48.128;11.376;2022-11-15T09:33:34;11.10;86.90
9448;DHT22;4762;48.128;11.376;2022-11-15T09:35:37;11.10;83.20
9448;DHT22;4762;48.128;11.376;2022-11-15T09:37:39;11.40;85.30
9448;DHT22;4762;48.128;11.376;2022-11-15T09:39:42;12.30;82.90
9448;DHT22;4762;48.128;11.376;2022-11-15T09:41:55;12.70;82.80
9448;DHT22;4762;48.128;11.376;2022-11-15T09:44:14;11.90;80.00
9448;DHT22;4762;48.128;11.376;2022-11-15T09:46:17;11.90;81.80
9448;DHT22;4762;48.128;11.376;2022-11-15T09:48:24;12.30;83.40
9448;DHT22;4762;48.128;11.376;2022-11-15T09:50:48;13.20;81.40
9448;DHT22;4762;48.128;11.376;2022-11-15T09:52:49;14.10;84.30
9448;DHT22;4762;48.128;11.376;2022-11-15T09:54:52;14.30;75.10
9448;DHT22;4762;48.128;11.376;2022-11-15T09:56:55;14.40;79.90
9448;DHT22;4762;48.128;11.376;2022-11-15T09:59:01;14.60;74.80
9448;DHT22;4762;48.128;11.376;2022-11-15T10:01:02;14.20;78.10
9448;DHT22;4762;48.128;11.376;2022-11-15T10:03:10;14.50;77.40
9448;DHT22;4762;48.128;11.376;2022-11-15T10:05:12;14.50;75.10
9448;DHT22;4762;48.128;11.376;2022-11-15T10:07:22;15.10;72.50
9448;DHT22;4762;48.128;11.376;2022-11-15T10:09:36;15.20;71.70
9448;DHT22;4762;48.128;11.376;2022-11-15T10:11:36;14.90;70.20
9448;DHT22;4762;48.128;11.376;2022-11-15T10:13:41;14.90;72.20
9448;DHT22;4762;48.128;11.376;2022-11-15T10:15:47;15.00;71.50
9448;DHT22;4762;48.128;11.376;2022-11-15T10:17:58;15.70;72.20
9448;DHT22;4762;48.128;11.376;2022-11-15T10:20:17;15.30;69.80
9448;DHT22;4762;48.128;11.376;2022-11-15T10:22:39;15.30;71.30
9448;DHT22;4762;48.128;11.376;2022-11-15T10:24:41;15.10;69.70
9448;DHT22;4762;48.128;11.376;2022-11-15T10:26:47;15.40;68.50
9448;DHT22;4762;48.128;11.376;2022-11-15T10:28:51;15.90;69.30
9448;DHT22;4762;48.128;11.376;2022-11-15T10:30:56;15.90;67.60
9448;DHT22;4762;48.128;11.376;2022-11-15T10:32:57;16.10;68.20
9448;DHT22;4762;48.128;11.376;2022-11-15T10:35:11;15.80;67.10
9448;DHT22;4762;48.128;11.376;2022-11-15T10:37:04;15.90;69.60
9448;DHT22;4762;48.128;11.376;2022-11-15T10:39:10;15.90;70.00
9448;DHT22;4762;48.128;11.376;2022-11-15T10:41:10;16.50;67.70
9448;DHT22;4762;48.128;11.376;2022-11-15T10:43:14;16.50;65.20
9448;DHT22;4762;48.128;11.376;2022-11-15T10:45:24;16.40;66.80
9448;DHT22;4762;48.128;11.376;2022-11-15T10:47:29;16.50;65.60
9448;DHT22;4762;48.128;11.376;2022-11-15T10:49:31;16.60;67.50
9448;DHT22;4762;48.128;11.376;2022-11-15T10:51:33;16.40;67.70
9448;DHT22;4762;48.128;11.376;2022-11-15T10:53:40;16.00;67.70
9448;DHT22;4762;48.128;11.376;2022-11-15T10:55:39;15.80;69.80
9448;DHT22;4762;48.128;11.376;2022-11-15T10:57:47;16.30;71.30
9448;DHT22;4762;48.128;11.376;2022-11-15T10:59:48;16.80;68.00
9448;DHT22;4762;48.128;11.376;2022-11-15T11:01:50;17.40;69.60
9448;DHT22;4762;48.128;11.376;2022-11-15T11:04:07;16.90;69.60
9448;DHT22;4762;48.128;11.376;2022-11-15T11:06:15;16.90;66.90
9448;DHT22;4762;48.128;11.376;2022-11-15T11:08:23;16.80;68.60
9448;DHT22;4762;48.128;11.376;2022-11-15T11:10:24;16.60;67.10
9448;DHT22;4762;48.128;11.376;2022-11-15T11:12:28;16.80;68.10
9448;DHT22;4762;48.128;11.376;2022-11-15T11:14:33;16.80;66.60
9448;DHT22;4762;48.128;11.376;2022-11-15T11:16:41;16.50;67.70
9448;DHT22;4762;48.128;11.376;2022-11-15T11:18:47;17.00;67.00
9448;DHT22;4762;48.128;11.376;2022-11-15T11:20:47;17.20;66.90
9448;DHT22;4762;48.128;11.376;2022-11-15T11:22:57;17.40;65.70
9448;DHT22;4762;48.128;11.376;2022-11-15T11:25:04;17.20;66.00
9448;DHT22;4762;48.128;11.376;2022-11-15T11:27:32;17.20;66.90
9448;DHT22;4762;48.128;11.376;2022-11-15T11:31:58;17.40;66.50
9448;DHT22;4762;48.128;11.376;2022-11-15T11:36:45;18.00;64.40
9448;DHT22;4762;48.128;11.376;2022-11-15T11:38:50;17.80;62.90
9448;DHT22;4762;48.128;11.376;2022-11-15T11:41:15;17.50;62.30
9448;DHT22;4762;48.128;11.376;2022-11-15T11:46:02;18.00;65.50
9448;DHT22;4762;48.128;11.376;2022-11-15T11:48:12;17.70;60.20
9448;DHT22;4762;48.128;11.376;2022-11-15T11:50:18;17.10;61.10
9448;DHT22;4762;48.128;11.376;2022-11-15T11:52:26;17.20;59.50
9448;DHT22;4762;48.128;11.376;2022-11-15T11:54:32;17.30;60.00
9448;DHT22;4762;48.128;11.376;2022-11-15T11:56:33;17.50;59.80
9448;DHT22;4762;48.128;11.376;2022-11-15T11:58:37;17.30;60.10
9448;DHT22;4762;48.128;11.376;2022-11-15T12:00:40;17.40;58.40
9448;DHT22;4762;48.128;11.376;2022-11-15T12:02:43;17.30;58.60
9448;DHT22;4762;48.128;11.376;2022-11-15T12:04:50;17.40;60.90
9448;DHT22;4762;48.128;11.376;2022-11-15T12:07:08;17.60;58.40
9448;DHT22;4762;48.128;11.376;2022-11-15T12:11:20;16.40;60.40
9448;DHT22;4762;48.128;11.376;2022-11-15T12:13:28;16.30;60.60
9448;DHT22;4762;48.128;11.376;2022-11-15T12:15:32;15.70;61.00
9448;DHT22;4762;48.128;11.376;2022-11-15T12:17:33;15.40;61.40
9448;DHT22;4762;48.128;11.376;2022-11-15T12:19:39;15.10;61.70
9448;DHT22;4762;48.128;11.376;2022-11-15T12:21:44;14.90;62.00
9448;DHT22;4762;48.128;11.376;2022-11-15T12:23:48;14.70;62.60
9448;DHT22;4762;48.128;11.376;2022-11-15T12:25:53;14.60;62.70
9448;DHT22;4762;48.128;11.376;2022-11-15T12:28:01;14.40;62.50
9448;DHT22;4762;48.128;11.376;2022-11-15T12:30:04;14.50;62.80
9448;DHT22;4762;48.128;11.376;2022-11-15T12:32:12;14.50;62.30
9448;DHT22;4762;48.128;11.376;2022-11-15T12:36:36;14.40;63.70
9448;DHT22;4762;48.128;11.376;2022-11-15T12:45:36;14.20;63.50
9448;DHT22;4762;48.128;11.376;2022-11-15T12:47:38;14.10;63.00
9448;DHT22;4762;48.128;11.376;2022-11-15T12:49:43;14.10;62.70
9448;DHT22;4762;48.128;11.376;2022-11-15T12:52:04;14.10;62.30
9448;DHT22;4762;48.128;11.376;2022-11-15T12:56:23;14.10;63.40
9448;DHT22;4762;48.128;11.376;2022-11-15T12:58:27;14.10;64.10
9448;DHT22;4762;48.128;11.376;2022-11-15T13:00:44;14.00;63.40
9448;DHT22;4762;48.128;11.376;2022-11-15T13:02:46;13.80;62.90
9448;DHT22;4762;48.128;11.376;2022-11-15T13:04:49;13.90;64.10
9448;DHT22;4762;48.128;11.376;2022-11-15T13:07:02;13.80;64.50
9448;DHT22;4762;48.128;11.376;2022-11-15T13:09:03;13.80;64.50
9448;DHT22;4762;48.128;11.376;2022-11-15T13:13:42;13.80;64.60
9448;DHT22;4762;48.128;11.376;2022-11-15T13:15:53;13.70;65.80
9448;DHT22;4762;48.128;11.376;2022-11-15T13:17:55;13.70;64.80
9448;DHT22;4762;48.128;11.376;2022-11-15T13:20:02;13.70;65.40
9448;DHT22;4762;48.128;11.376;2022-11-15T13:22:04;13.70;65.30
9448;DHT22;4762;48.128;11.376;2022-11-15T13:24:15;13.60;65.60
9448;DHT22;4762;48.128;11.376;2022-11-15T13:26:16;13.50;66.00
9448;DHT22;4762;48.128;11.376;2022-11-15T13:28:21;13.50;66.50
9448;DHT22;4762;48.128;11.376;2022-11-15T13:30:23;13.50;66.60
9448;DHT22;4762;48.128;11.376;2022-11-15T13:32:24;13.50;66.20
9448;DHT22;4762;48.128;11.376;2022-11-15T13:34:30;13.50;66.10
9448;DHT22;4762;48.128;11.376;2022-11-15T13:36:32;13.60;66.80
9448;DHT22;4762;48.128;11.376;2022-11-15T13:38:37;13.70;66.30
9448;DHT22;4762;48.128;11.376;2022-11-15T13:40:38;13.50;65.80
9448;DHT22;4762;48.128;11.376;2022-11-15T13:42:40;13.50;66.20
9448;DHT22;4762;48.128;11.376;2022-11-15T13:44:56;13.50;66.20
9448;DHT22;4762;48.128;11.376;2022-11-15T13:47:05;13.50;66.50
9448;DHT22;4762;48.128;11.376;2022-11-15T13:49:09;13.50;66.70
9448;DHT22;4762;48.128;11.376;2022-11-15T13:51:22;13.30;67.40
9448;DHT22;4762;48.128;11.376;2022-11-15T13:53:26;13.40;66.00
9448;DHT22;4762;48.128;11.376;2022-11-15T13:55:29;13.40;66.20
9448;DHT22;4762;48.128;11.376;2022-11-15T13:57:37;13.40;67.60
9448;DHT22;4762;48.128;11.376;2022-11-15T13:59:43;13.40;68.40
9448;DHT22;4762;48.128;11.376;2022-11-15T14:01:40;13.30;69.20
9448;DHT22;4762;48.128;11.376;2022-11-15T14:03:46;13.30;68.80
9448;DHT22;4762;48.128;11.376;2022-11-15T14:05:46;13.20;67.70
9448;DHT22;4762;48.128;11.376;2022-11-15T14:07:54;13.30;67.40